APL New Jersey — A8NM6 — position and weather

sailwx.info

Track history (hours):
 
Tides and Currents Weather Stations Pressure Air Temp Water Temp Dewpoint Dewpoint Depression Visibility Wind Speed Wind Dir Waves Ship Positions

APL New Jersey

Last reported at 2015-Mar-31 11:30 UTC. Time now 2015-Mar-31 12:37 UTC.
Position N 33°30' W 120°26'.

Length 293 m; draft 11.9 m.

Type: Cargo ship. MMSI: 636013522.

Date/timePositionNaut miles runAvg speedWind from/ knotsBaromVisibWave heightAir tempDewpointWater temp
2015-Mar-31 11:30N 33°30' W 120°26'1718.4
2015-Mar-31 10:33N 33°28' W 120°05'1919.1
2015-Mar-31 09:33N 33°33' W 119°43'2019.6
2015-Mar-31 08:33N 33°38' W 119°20'1515.0
2015-Mar-31 07:33N 33°40' W 119°02'1211.6
2015-Mar-31 06:34N 33°38' W 118°48'1211.5
2015-Mar-31 05:33N 33°36' W 118°34'1111.4
2015-Mar-31 04:34N 33°35' W 118°21'8 8.1
2015-Mar-31 03:33N 33°41' W 118°15'3 2.9
2015-Mar-31 02:32N 33°44' W 118°15'0 0.0
2015-Mar-31 01:32N 33°44' W 118°15'0 0.0
2015-Mar-31 00:32N 33°44' W 118°15'0 0.0
2015-Mar-30 23:32N 33°44' W 118°15'0 0.0
2015-Mar-30 22:32N 33°44' W 118°15'0 0.0
2015-Mar-30 21:32N 33°44' W 118°15'0 0.1
2015-Mar-30 20:32N 33°44' W 118°15'0 0.0
2015-Mar-30 19:29N 33°44' W 118°15'3823130.3
2015-Mar-30 19:22N 27°23' W 117°55'382461.3
2015-Mar-30 18:32N 33°44' W 118°15'0 0.0
2015-Mar-30 17:26N 33°44' W 118°15'0 0.1
2015-Mar-30 16:32N 33°44' W 118°15'0 0.0
2015-Mar-30 15:32N 33°44' W 118°15'0 0.0
2015-Mar-30 14:32N 33°44' W 118°15'0 0.0
2015-Mar-30 13:32N 33°44' W 118°15'4451739.0
2015-Mar-30 13:17N 26°27' W 116°37'445597.0
2015-Mar-30 12:32N 33°44' W 118°15'0 0.0
2015-Mar-30 11:32N 33°44' W 118°15'0 0.0
2015-Mar-30 10:32N 33°44' W 118°15'0 0.0
2015-Mar-30 09:29N 33°44' W 118°15'0 0.0
2015-Mar-30 08:32N 33°44' W 118°15'0 0.0
2015-Mar-30 07:32N 33°44' W 118°15'0 0.0
2015-Mar-30 06:32N 33°44' W 118°15'0 0.0
2015-Mar-30 05:32N 33°44' W 118°15'0 0.0
2015-Mar-30 04:32N 33°44' W 118°15'0 0.0
2015-Mar-30 03:32N 33°44' W 118°15'0 0.0
2015-Mar-30 02:32N 33°44' W 118°15'0 0.0
2015-Mar-30 01:32N 33°44' W 118°15'0 0.0
2015-Mar-30 00:32N 33°44' W 118°15'0 0.0
2015-Mar-29 23:32N 33°44' W 118°15'0 0.0
2015-Mar-29 22:32N 33°44' W 118°15'0 0.0
2015-Mar-29 21:32N 33°44' W 118°15'0 0.1
2015-Mar-29 20:32N 33°44' W 118°15'0 0.0
2015-Mar-29 19:32N 33°44' W 118°15'0 0.0
2015-Mar-29 18:32N 33°44' W 118°15'0 0.0
2015-Mar-29 17:32N 33°44' W 118°15'0 0.0
2015-Mar-29 16:32N 33°44' W 118°15'0 0.0
2015-Mar-29 15:32N 33°44' W 118°15'0 0.0
2015-Mar-29 14:32N 33°44' W 118°15'0 0.0
2015-Mar-29 13:32N 33°44' W 118°15'1 1.5
2015-Mar-29 12:33N 33°43' W 118°15'7 7.4
2015-Mar-29 11:33N 33°36' W 118°11'7 7.3
2015-Mar-29 10:33N 33°29' W 118°08'1111.1
2015-Mar-29 09:33N 33°19' W 118°03'1111.1
2015-Mar-29 08:33N 33°08' W 117°58'1111.0
2015-Mar-29 07:33N 32°58' W 117°54'1110.9
2015-Mar-29 06:33N 32°48' W 117°49'1312.6
2015-Mar-29 05:34N 32°36' W 117°44'2019.8
2015-Mar-29 04:33N 32°17' W 117°37'1919.3
2015-Mar-29 03:33N 31°59' W 117°30'1919.0
2015-Mar-29 02:33N 31°41' W 117°23'2119.0
2015-Mar-29 01:27N 31°21' W 117°15'1819.1
2015-Mar-29 00:32N 31°04' W 117°09'1919.1
2015-Mar-28 23:33N 30°46' W 117°02'2019.1
2015-Mar-28 22:31N 30°27' W 116°55'1818.2
2015-Mar-28 21:34N 30°11' W 116°49'1817.8
2015-Mar-28 20:33N 29°54' W 116°43'1817.6
2015-Mar-28 19:33N 29°37' W 116°36'1716.6
2015-Mar-28 18:33N 29°21' W 116°30'1616.3
2015-Mar-28 17:33N 29°06' W 116°24'1616.2
2015-Mar-28 16:33N 28°51' W 116°19'1616.0
2015-Mar-28 15:33N 28°35' W 116°15'1515.1
2015-Mar-28 14:33N 28°21' W 116°08'1715.9
2015-Mar-28 13:29N 28°05' W 116°02'1516.0
2015-Mar-28 12:33N 27°52' W 115°53'1616.2
2015-Mar-28 11:34N 27°40' W 115°42'1616.3
2015-Mar-28 10:33N 27°27' W 115°31'1716.5
2015-Mar-28 09:33N 27°14' W 115°19'1616.4
2015-Mar-28 08:33N 27°01' W 115°08'1616.2
2015-Mar-28 07:33N 26°48' W 114°56'  
2015-Mar-22 02:27N 27°02' W 115°08'1719.4
2015-Mar-22 01:33N 27°15' W 115°20'2719.1
2015-Mar-22 00:09N 27°36' W 115°39'1219.1
2015-Mar-21 23:30N 27°46' W 115°48'15018.8
2015-Mar-21 15:31N 30°07' W 116°47'2219.6
2015-Mar-21 14:25N 30°28' W 116°55'  
Track history (hours):
 
Tides and Currents Weather Stations Pressure Air Temp Water Temp Dewpoint Dewpoint Depression Visibility Wind Speed Wind Dir Waves Ship Positions

APL New Jersey

Last reported at 2015-Mar-31 11:30 UTC. Time now 2015-Mar-31 12:37 UTC.
Position N 33°30' W 120°26'.

Length 293 m; draft 11.9 m.

Type: Cargo ship. MMSI: 636013522.

Date/timePositionNaut miles runAvg speedWind from/ knotsBaromVisibWave heightAir tempDewpointWater temp
2015-Mar-31 11:30N 33°30' W 120°26'1718.4
2015-Mar-31 10:33N 33°28' W 120°05'1919.1
2015-Mar-31 09:33N 33°33' W 119°43'2019.6
2015-Mar-31 08:33N 33°38' W 119°20'1515.0
2015-Mar-31 07:33N 33°40' W 119°02'1211.6
2015-Mar-31 06:34N 33°38' W 118°48'1211.5
2015-Mar-31 05:33N 33°36' W 118°34'1111.4
2015-Mar-31 04:34N 33°35' W 118°21'8 8.1
2015-Mar-31 03:33N 33°41' W 118°15'3 2.9
2015-Mar-31 02:32N 33°44' W 118°15'0 0.0
2015-Mar-31 01:32N 33°44' W 118°15'0 0.0
2015-Mar-31 00:32N 33°44' W 118°15'0 0.0
2015-Mar-30 23:32N 33°44' W 118°15'0 0.0
2015-Mar-30 22:32N 33°44' W 118°15'0 0.0
2015-Mar-30 21:32N 33°44' W 118°15'0 0.1
2015-Mar-30 20:32N 33°44' W 118°15'0 0.0
2015-Mar-30 19:29N 33°44' W 118°15'3823130.3
2015-Mar-30 19:22N 27°23' W 117°55'382461.3
2015-Mar-30 18:32N 33°44' W 118°15'0 0.0
2015-Mar-30 17:26N 33°44' W 118°15'0 0.1
2015-Mar-30 16:32N 33°44' W 118°15'0 0.0
2015-Mar-30 15:32N 33°44' W 118°15'0 0.0
2015-Mar-30 14:32N 33°44' W 118°15'0 0.0
2015-Mar-30 13:32N 33°44' W 118°15'4451739.0
2015-Mar-30 13:17N 26°27' W 116°37'445597.0
2015-Mar-30 12:32N 33°44' W 118°15'0 0.0
2015-Mar-30 11:32N 33°44' W 118°15'0 0.0
2015-Mar-30 10:32N 33°44' W 118°15'0 0.0
2015-Mar-30 09:29N 33°44' W 118°15'0 0.0
2015-Mar-30 08:32N 33°44' W 118°15'0 0.0
2015-Mar-30 07:32N 33°44' W 118°15'0 0.0
2015-Mar-30 06:32N 33°44' W 118°15'0 0.0
2015-Mar-30 05:32N 33°44' W 118°15'0 0.0
2015-Mar-30 04:32N 33°44' W 118°15'0 0.0
2015-Mar-30 03:32N 33°44' W 118°15'0 0.0
2015-Mar-30 02:32N 33°44' W 118°15'0 0.0
2015-Mar-30 01:32N 33°44' W 118°15'0 0.0
2015-Mar-30 00:32N 33°44' W 118°15'0 0.0
2015-Mar-29 23:32N 33°44' W 118°15'0 0.0
2015-Mar-29 22:32N 33°44' W 118°15'0 0.0
2015-Mar-29 21:32N 33°44' W 118°15'0 0.1
2015-Mar-29 20:32N 33°44' W 118°15'0 0.0
2015-Mar-29 19:32N 33°44' W 118°15'0 0.0
2015-Mar-29 18:32N 33°44' W 118°15'0 0.0
2015-Mar-29 17:32N 33°44' W 118°15'0 0.0
2015-Mar-29 16:32N 33°44' W 118°15'0 0.0
2015-Mar-29 15:32N 33°44' W 118°15'0 0.0
2015-Mar-29 14:32N 33°44' W 118°15'0 0.0
2015-Mar-29 13:32N 33°44' W 118°15'1 1.5
2015-Mar-29 12:33N 33°43' W 118°15'7 7.4
2015-Mar-29 11:33N 33°36' W 118°11'7 7.3
2015-Mar-29 10:33N 33°29' W 118°08'1111.1
2015-Mar-29 09:33N 33°19' W 118°03'1111.1
2015-Mar-29 08:33N 33°08' W 117°58'1111.0
2015-Mar-29 07:33N 32°58' W 117°54'1110.9
2015-Mar-29 06:33N 32°48' W 117°49'1312.6
2015-Mar-29 05:34N 32°36' W 117°44'2019.8
2015-Mar-29 04:33N 32°17' W 117°37'1919.3
2015-Mar-29 03:33N 31°59' W 117°30'1919.0
2015-Mar-29 02:33N 31°41' W 117°23'2119.0
2015-Mar-29 01:27N 31°21' W 117°15'1819.1
2015-Mar-29 00:32N 31°04' W 117°09'1919.1
2015-Mar-28 23:33N 30°46' W 117°02'2019.1
2015-Mar-28 22:31N 30°27' W 116°55'1818.2
2015-Mar-28 21:34N 30°11' W 116°49'1817.8
2015-Mar-28 20:33N 29°54' W 116°43'1817.6
2015-Mar-28 19:33N 29°37' W 116°36'1716.6
2015-Mar-28 18:33N 29°21' W 116°30'1616.3
2015-Mar-28 17:33N 29°06' W 116°24'1616.2
2015-Mar-28 16:33N 28°51' W 116°19'1616.0
2015-Mar-28 15:33N 28°35' W 116°15'1515.1
2015-Mar-28 14:33N 28°21' W 116°08'1715.9
2015-Mar-28 13:29N 28°05' W 116°02'1516.0
2015-Mar-28 12:33N 27°52' W 115°53'1616.2
2015-Mar-28 11:34N 27°40' W 115°42'1616.3
2015-Mar-28 10:33N 27°27' W 115°31'1716.5
2015-Mar-28 09:33N 27°14' W 115°19'1616.4
2015-Mar-28 08:33N 27°01' W 115°08'1616.2
2015-Mar-28 07:33N 26°48' W 114°56'  
2015-Mar-22 02:27N 27°02' W 115°08'1719.4
2015-Mar-22 01:33N 27°15' W 115°20'2719.1
2015-Mar-22 00:09N 27°36' W 115°39'1219.1
2015-Mar-21 23:30N 27°46' W 115°48'15018.8
2015-Mar-21 15:31N 30°07' W 116°47'2219.6
2015-Mar-21 14:25N 30°28' W 116°55'  

Dump ship's entire track history